Decoded Metar for WBKT (KUDAT in MALAYSIA) (IATA:KUD) | Meteo·Mobile Aviation Weather
aviador You're here:

WBKT Decoded Metar

KUDAT in MALAYSIA
Report Time2019-02-20 01:00:00
UTC Time2019-02-20 01:18:43
Flight Rules vfr VFR
Wind120° at 07 kt
W.Rank120° ranks 13
Current wind is above 120° avg. (4.3)
Visibility9999 m
Phenomena:N/A
Clouds:Few 015 Hf
Broken 280 Hf
Expected CloudBase > 1,600 ft AGL from Temp-Dew spread
Ceiling28,000 ft
Temp28°C (ISA +13)
Dew Point24°C (79% RH)
Heat Index31.9°C
QNH1015 hPa
Density Alt1,841 ft
Elevation16 ft
Report Wrong Elevation
Raw Report
WBKT 200100Z 12007KT 030V190 9999 FEW015 BKN280 28/24 Q1015=

Extra information for WBKT:More info

Metar Taf Metar & Taf Last 4 Metars F.Rules Stats Wind Profile Meteogram Temp Stats Airport Information Weather charts Add Link Nearby VenuesMetar ALERT Operation Metar Decoded Social comments